Milton, Vermont
Current Conditions -  °F | °C
As of 4:03 AM on Wednesday 28 Jan 2015 (Local Time) from KBTV Reporting Station
Broken Clouds Broken Clouds  
Wind Chill: -9°   Ceiling: 3100
Heat Index:   Visibility: 10mi
Dew Point: -2°   Wind: 10mph
Humidity: 69%   Direction: 10°N
Pressure: 29.99"   Gusts: NA
Location:  44.64°N, 73.11°W
Report Text: KBTV 280903Z 01009KT 10SM BKN031 M14/M19 A2999 RMK AO2 T11441189
Loading
Personal Weather Stations






























Interactive Weather Map New forecast layout! Learn more

10-Day Weather Forecast

Advertisements
Track Severe Weather on mobile